Time;durP1;ratioP1;P1;durP2;ratioP2;P2;SDS_P1;SDS_P2;PMS_P1;PMS_P2;Temp;Humidity;BMP_temperature;BMP_pressure;BME280_temperature;BME280_humidity;BME280_pressure;Samples;Min_cycle;Max_cycle;Signal;HPM_P1;HPM_P2
2021/12/10 00:01:15;;;;;;;12.57;5.75;;;;;;;4.76;94.85;99723.75;4870345;29;20053;-50
2021/12/10 00:04:04;;;;;;;14.88;6.10;;;;;;;4.74;94.17;99720.47;4877925;29;20060;-51
2021/12/10 00:06:54;;;;;;;15.10;5.68;;;;;;;4.74;94.71;99718.63;4877154;29;20060;-55
2021/12/10 00:09:46;;;;;;;14.13;5.53;;;;;;;4.65;94.43;99704.78;4876875;29;20114;-51
2021/12/10 00:12:38;;;;;;;16.35;6.72;;;;;;;4.68;94.94;99701.56;4877782;29;20057;-50
2021/12/10 00:15:28;;;;;;;16.25;6.38;;;;;;;4.73;94.69;99697.28;4877679;29;20053;-53
2021/12/10 00:18:17;;;;;;;15.55;6.38;;;;;;;4.74;93.91;99701.59;4876403;29;20045;-48
2021/12/10 00:21:05;;;;;;;13.18;5.55;;;;;;;4.70;93.74;99699.41;4878405;29;20049;-53
2021/12/10 00:23:56;;;;;;;11.32;4.80;;;;;;;4.73;95.35;99686.50;4859876;29;20086;-50
2021/12/10 00:26:45;;;;;;;14.85;5.93;;;;;;;4.67;93.88;99680.25;4860268;29;20049;-45
2021/12/10 00:29:35;;;;;;;15.23;6.55;;;;;;;4.62;94.43;99664.81;4863957;29;20499;-49
2021/12/10 00:32:33;;;;;;;11.45;4.85;;;;;;;4.75;94.14;99658.19;4866791;29;20389;-51
2021/12/10 00:35:25;;;;;;;15.07;5.97;;;;;;;4.68;93.97;99647.59;4880649;29;20068;-49
2021/12/10 00:38:12;;;;;;;7.88;3.75;;;;;;;4.77;97.15;99650.63;4880853;29;20049;-46
2021/12/10 00:41:00;;;;;;;14.93;5.30;;;;;;;4.89;96.36;99642.34;4882190;29;20063;-51
2021/12/10 00:43:49;;;;;;;7.80;4.10;;;;;;;4.96;98.96;99637.56;4881716;29;20405;-51
2021/12/10 00:46:37;;;;;;;18.08;6.05;;;;;;;4.94;97.42;99634.28;4881711;29;20053;-53
2021/12/10 00:49:15;;;;;;;15.48;5.78;;;;;;;4.88;96.68;99632.63;4882384;29;20053;-52
2021/12/10 00:52:05;;;;;;;11.88;5.40;;;;;;;4.79;95.23;99626.09;4880986;29;20057;-49
2021/12/10 00:54:53;;;;;;;11.05;5.30;;;;;;;4.83;96.27;99628.00;4880130;29;20057;-52
2021/12/10 00:57:27;;;;;;;13.98;6.35;;;;;;;4.77;94.57;99617.44;4863776;29;20048;-52
2021/12/10 01:00:19;;;;;;;12.50;5.40;;;;;;;4.75;94.10;99620.41;4880163;29;20053;-46
2021/12/10 01:03:09;;;;;;;13.63;5.70;;;;;;;4.79;94.25;99601.81;4879499;29;20069;-50
2021/12/10 01:06:01;;;;;;;16.10;6.32;;;;;;;4.66;91.80;99590.38;4880903;29;20056;-49
2021/12/10 01:08:52;;;;;;;16.80;5.97;;;;;;;4.58;92.78;99581.97;4879092;29;20061;-50
2021/12/10 01:11:47;;;;;;;13.85;5.80;;;;;;;4.56;92.55;99579.53;4867675;29;20049;-52
2021/12/10 01:24:14;;;;;;;11.07;5.13;;;;;;;4.44;91.40;99546.53;4881004;29;20472;-48
2021/12/10 01:27:14;;;;;;;11.32;4.30;;;;;;;4.41;91.28;99539.78;4869257;29;20048;-47
2021/12/10 01:30:09;;;;;;;12.05;5.22;;;;;;;4.41;92.00;99536.28;4867875;29;20048;-46
2021/12/10 01:33:04;;;;;;;10.83;4.70;;;;;;;4.42;91.20;99522.50;4880613;29;20105;-49
2021/12/10 01:35:54;;;;;;;11.43;4.70;;;;;;;4.43;90.96;99516.06;4880790;29;20049;-50
2021/12/10 01:38:44;;;;;;;15.07;5.28;;;;;;;4.48;91.07;99512.59;4881011;29;20053;-50
2021/12/10 01:41:36;;;;;;;12.63;4.82;;;;;;;4.52;90.38;99512.88;4878020;29;20460;-51
2021/12/10 01:44:30;;;;;;;10.35;4.35;;;;;;;4.52;90.35;99502.88;4881017;29;20059;-54
2021/12/10 01:47:22;;;;;;;10.00;4.60;;;;;;;4.55;90.16;99506.97;4881046;29;20045;-47
2021/12/10 01:50:10;;;;;;;11.18;4.38;;;;;;;4.53;89.55;99501.81;4866362;29;20461;-50
2021/12/10 01:53:00;;;;;;;11.55;4.47;;;;;;;4.54;89.65;99495.34;4879598;29;20065;-50
2021/12/10 01:55:49;;;;;;;13.95;5.07;;;;;;;4.56;89.60;99487.81;4879621;29;20128;-51
2021/12/10 01:58:36;;;;;;;11.10;4.63;;;;;;;4.59;89.75;99484.59;4880802;29;20101;-49
2021/12/10 02:01:31;;;;;;;10.35;4.10;;;;;;;4.62;89.31;99478.69;4879025;29;20048;-50
2021/12/10 02:04:24;;;;;;;10.10;4.00;;;;;;;4.63;89.10;99472.19;4879505;29;20139;-51
2021/12/10 02:07:13;;;;;;;10.80;4.20;;;;;;;4.62;88.75;99476.00;4878865;29;20465;-51
2021/12/10 02:10:03;;;;;;;9.98;3.97;;;;;;;4.64;89.04;99473.84;4878921;29;20041;-50
2021/12/10 02:12:51;;;;;;;10.32;4.35;;;;;;;4.64;88.61;99454.97;4878911;29;20064;-50
2021/12/10 02:15:39;;;;;;;9.20;3.78;;;;;;;4.66;88.82;99454.69;4880749;29;20096;-49
2021/12/10 02:18:27;;;;;;;13.93;3.80;;;;;;;4.64;87.85;99444.16;4879783;29;20089;-53
2021/12/10 02:21:20;;;;;;;8.90;3.90;;;;;;;4.64;88.48;99444.16;4861011;29;20053;-49
2021/12/10 02:24:09;;;;;;;11.48;4.20;;;;;;;4.61;87.90;99433.88;4858535;29;20769;-49
2021/12/10 02:27:00;;;;;;;8.75;3.72;;;;;;;4.59;87.68;99422.53;4857011;29;20045;-52
2021/12/10 02:29:48;;;;;;;10.85;3.50;;;;;;;4.56;88.05;99414.97;4878074;29;20053;-51
2021/12/10 02:32:35;;;;;;;8.57;3.60;;;;;;;4.55;88.33;99413.38;4877127;29;20064;-50
2021/12/10 02:35:24;;;;;;;10.57;3.70;;;;;;;4.54;87.89;99408.22;4878867;29;20081;-51
2021/12/10 02:38:11;;;;;;;9.30;3.92;;;;;;;4.53;87.45;99396.63;4878186;29;20113;-50
2021/12/10 02:40:44;;;;;;;8.48;3.50;;;;;;;4.53;87.58;99395.81;4843341;29;20045;-50
2021/12/10 02:43:32;;;;;;;9.43;3.75;;;;;;;4.51;87.59;99387.19;4861391;29;20056;-50
2021/12/10 02:46:20;;;;;;;7.85;3.40;;;;;;;4.51;87.80;99381.78;4865370;29;20113;-49
2021/12/10 02:49:09;;;;;;;8.65;3.53;;;;;;;4.53;87.46;99364.28;4871333;29;20053;-52
2021/12/10 02:51:57;;;;;;;9.95;3.38;;;;;;;4.55;87.14;99359.44;4857827;29;20056;-49
2021/12/10 02:54:44;;;;;;;9.23;3.83;;;;;;;4.54;86.73;99355.09;4859884;29;20116;-47
2021/12/10 02:57:32;;;;;;;9.10;3.35;;;;;;;4.54;86.89;99352.41;4871183;29;20049;-50
2021/12/10 03:00:28;;;;;;;9.02;3.40;;;;;;;4.55;86.84;99356.72;4879708;29;20056;-50
2021/12/10 03:03:16;;;;;;;;;;;;;;;4.55;86.90;99348.63;4879403;29;20063;-52
2021/12/10 03:06:10;;;;;;;9.63;3.30;;;;;;;4.55;87.21;99345.94;4878521;29;20273;-51
2021/12/10 03:08:58;;;;;;;8.77;3.53;;;;;;;4.54;86.79;99344.31;4877918;29;20504;-49
2021/12/10 03:11:48;;;;;;;11.15;3.40;;;;;;;4.52;86.59;99335.66;4878761;29;20082;-51
2021/12/10 03:14:37;;;;;;;9.82;3.60;;;;;;;4.47;87.05;99333.78;4878877;29;20524;-51
2021/12/10 03:17:30;;;;;;;8.93;3.78;;;;;;;4.46;86.06;99331.34;4857601;29;20141;-51
2021/12/10 03:20:21;;;;;;;8.57;3.88;;;;;;;4.38;86.63;99327.28;4857380;29;20057;-52
2021/12/10 03:23:10;;;;;;;7.80;3.60;;;;;;;4.38;87.24;99312.97;4859457;29;20057;-49
2021/12/10 03:25:57;;;;;;;10.05;3.40;;;;;;;4.44;86.60;99317.31;4860076;29;20124;-50
2021/12/10 03:28:46;;;;;;;10.05;3.67;;;;;;;4.44;85.85;99303.81;4851261;29;20045;-48
2021/12/10 03:31:34;;;;;;;7.82;3.33;;;;;;;4.42;86.64;99308.66;4878041;29;20053;-51
2021/12/10 03:34:21;;;;;;;8.73;3.35;;;;;;;4.44;86.18;99295.72;4878735;29;20049;-50
2021/12/10 03:37:09;;;;;;;8.65;3.28;;;;;;;4.41;86.00;99297.06;4878688;29;20117;-51
2021/12/10 03:39:57;;;;;;;10.15;3.65;;;;;;;4.43;85.92;99294.13;4877318;29;20065;-50
2021/12/10 03:42:47;;;;;;;10.88;3.47;;;;;;;4.39;85.60;99277.66;4875874;29;20053;-53
2021/12/10 03:45:38;;;;;;;8.35;3.63;;;;;;;4.36;85.96;99294.38;4876461;29;20053;-49
2021/12/10 03:48:29;;;;;;;8.88;3.30;;;;;;;4.39;86.58;99272.25;4878911;29;20500;-48
2021/12/10 03:51:23;;;;;;;8.38;3.10;;;;;;;4.41;86.12;99269.31;4877310;29;20057;-48
2021/12/10 03:54:12;;;;;;;6.35;2.97;;;;;;;4.40;84.76;99259.56;4864862;29;20053;-48
2021/12/10 03:56:59;;;;;;;9.70;3.00;;;;;;;4.37;85.54;99247.44;4878833;29;20413;-50
2021/12/10 03:59:47;;;;;;;11.35;3.17;;;;;;;4.36;85.04;99250.41;4876850;29;20472;-48
2021/12/10 04:02:34;;;;;;;8.48;3.13;;;;;;;4.37;85.54;99244.75;4875433;29;20144;-49
2021/12/10 04:05:22;;;;;;;9.10;3.20;;;;;;;4.39;85.47;99244.47;4877528;29;20060;-49
2021/12/10 04:08:10;;;;;;;7.40;3.40;;;;;;;4.40;84.89;99248.78;4878764;29;20503;-48
2021/12/10 04:10:58;;;;;;;8.05;3.08;;;;;;;4.40;85.10;99241.53;4877739;29;20045;-49
2021/12/10 04:13:47;;;;;;;7.82;3.25;;;;;;;4.44;84.82;99247.19;4878719;29;20053;-50
2021/12/10 04:16:36;;;;;;;9.27;3.40;;;;;;;4.41;84.82;99242.34;4877403;29;20397;-47
2021/12/10 04:19:29;;;;;;;9.23;3.40;;;;;;;4.43;84.80;99235.59;4877828;29;20049;-48
2021/12/10 04:22:19;;;;;;;10.40;3.30;;;;;;;4.44;84.52;99231.00;4876673;29;20552;-47
2021/12/10 04:25:08;;;;;;;7.40;3.20;;;;;;;4.45;84.35;99224.56;4876392;29;20056;-46
2021/12/10 04:27:58;;;;;;;8.63;2.88;;;;;;;4.46;84.64;99218.06;4875134;29;20049;-50
2021/12/10 04:30:47;;;;;;;7.68;3.00;;;;;;;4.50;84.47;99216.47;4877211;29;20052;-47
2021/12/10 04:33:35;;;;;;;9.10;2.95;;;;;;;4.49;83.93;99212.13;4874434;29;20094;-53
2021/12/10 04:36:22;;;;;;;8.75;3.42;;;;;;;4.50;83.96;99197.59;4877487;29;20053;-50
2021/12/10 04:39:10;;;;;;;9.88;3.45;;;;;;;4.45;84.12;99200.28;4877843;29;20057;-50
2021/12/10 04:41:58;;;;;;;7.47;2.80;;;;;;;4.41;83.56;99193.81;4877403;29;20193;-49
2021/12/10 04:44:46;;;;;;;5.53;2.60;;;;;;;4.33;85.20;99186.22;4876655;29;20132;-48
2021/12/10 04:47:34;;;;;;;9.73;2.83;;;;;;;4.35;84.94;99179.47;4877338;29;20073;-49
2021/12/10 04:50:23;;;;;;;8.32;2.55;;;;;;;4.35;84.65;99178.69;4877174;29;20065;-53
2021/12/10 04:53:11;;;;;;;9.57;2.90;;;;;;;4.27;84.76;99167.34;4876983;29;20049;-48
2021/12/10 04:55:59;;;;;;;9.23;3.50;;;;;;;4.32;85.08;99160.34;4877613;29;20060;-48
2021/12/10 04:58:47;;;;;;;8.00;2.80;;;;;;;4.34;85.53;99161.69;4877282;29;20057;-48
2021/12/10 05:01:36;;;;;;;7.57;3.10;;;;;;;4.41;85.58;99156.03;4877009;29;20121;-53
2021/12/10 05:04:25;;;;;;;8.38;3.08;;;;;;;4.38;84.99;99143.09;4877779;29;20064;-51
2021/12/10 05:07:14;;;;;;;8.77;3.03;;;;;;;4.39;85.05;99147.41;4874888;29;20188;-51
2021/12/10 05:09:48;;;;;;;7.93;2.70;;;;;;;4.38;85.23;99137.72;4860079;29;20049;-49
2021/12/10 05:12:37;;;;;;;7.25;2.67;;;;;;;4.40;84.97;99133.66;4863383;29;20053;-52
2021/12/10 05:15:27;;;;;;;9.38;3.30;;;;;;;4.36;84.44;99110.22;4875960;29;20064;-52
2021/12/10 05:18:15;;;;;;;7.57;2.97;;;;;;;4.28;84.65;99108.84;4880884;29;20064;-52
2021/12/10 05:21:07;;;;;;;8.15;2.75;;;;;;;4.23;85.41;99111.53;4879325;29;20506;-48
2021/12/10 05:23:55;;;;;;;7.43;2.85;;;;;;;4.26;85.44;99111.81;4881492;29;20453;-50
2021/12/10 05:26:43;;;;;;;11.00;2.75;;;;;;;4.30;85.24;99111.28;4880723;29;20563;-50
2021/12/10 05:29:31;;;;;;;8.10;3.13;;;;;;;4.23;84.84;99101.59;4879732;29;20049;-49
2021/12/10 05:32:19;;;;;;;7.72;2.75;;;;;;;4.19;85.43;99105.88;4878807;29;20492;-50
2021/12/10 05:35:07;;;;;;;9.23;3.03;;;;;;;4.23;85.14;99109.66;4879003;29;20045;-50
2021/12/10 05:37:55;;;;;;;9.52;2.90;;;;;;;4.25;85.73;99101.28;4879957;29;20109;-49
2021/12/10 05:40:43;;;;;;;9.98;3.05;;;;;;;4.25;85.63;99094.00;4880948;29;20064;-52
2021/12/10 05:43:31;;;;;;;8.38;2.63;;;;;;;4.22;85.62;99091.06;4878964;29;20481;-47
2021/12/10 05:46:19;;;;;;;7.10;2.42;;;;;;;4.21;86.00;99087.56;4879766;29;20564;-48
2021/12/10 05:49:07;;;;;;;8.30;2.95;;;;;;;4.24;85.80;99080.81;4860791;29;20420;-50
2021/12/10 05:51:55;;;;;;;10.10;2.60;;;;;;;4.24;86.59;99075.44;4847944;29;20102;-51
2021/12/10 05:54:43;;;;;;;8.88;3.05;;;;;;;4.25;86.09;99083.22;4860929;29;20050;-47
2021/12/10 05:57:31;;;;;;;8.93;3.10;;;;;;;4.27;86.52;99081.06;4857400;29;20472;-52
2021/12/10 06:00:33;;;;;;;9.38;3.08;;;;;;;4.29;86.46;99075.44;4862545;29;20053;-52
2021/12/10 06:03:23;;;;;;;8.45;2.80;;;;;;;4.34;85.96;99077.31;4864792;29;20520;-51
2021/12/10 06:06:10;;;;;;;8.55;2.78;;;;;;;4.35;86.01;99070.81;4878766;29;20117;-53
2021/12/10 06:09:00;;;;;;;10.05;2.83;;;;;;;4.32;85.39;99063.28;4859328;29;20061;-52
2021/12/10 06:11:48;;;;;;;9.15;3.00;;;;;;;4.27;85.70;99064.91;4864809;29;20045;-51
2021/12/10 06:14:35;;;;;;;8.60;2.90;;;;;;;4.26;86.18;99062.50;4880554;29;20480;-47
2021/12/10 06:17:23;;;;;;;7.57;2.97;;;;;;;4.26;85.92;99057.91;4877206;29;20588;-53
2021/12/10 06:20:13;;;;;;;10.70;3.58;;;;;;;4.22;85.81;99056.81;4878716;29;20061;-51
2021/12/10 06:23:01;;;;;;;8.68;3.10;;;;;;;4.22;87.01;99054.13;4879193;29;20457;-48
2021/12/10 06:25:49;;;;;;;8.32;3.03;;;;;;;4.29;86.41;99044.97;4877685;29;20409;-47
2021/12/10 06:28:37;;;;;;;7.80;2.80;;;;;;;4.30;86.38;99043.88;4878093;29;20052;-48
2021/12/10 06:31:25;;;;;;;9.52;3.33;;;;;;;4.31;86.07;99037.41;4878835;29;20041;-49
2021/12/10 06:34:13;;;;;;;10.07;3.10;;;;;;;4.33;86.04;99043.31;4864367;29;20049;-49
2021/12/10 06:37:01;;;;;;;9.15;2.88;;;;;;;4.36;85.87;99037.41;4878566;29;20125;-48
2021/12/10 06:39:49;;;;;;;9.20;3.25;;;;;;;4.34;85.74;99047.66;4878346;29;20390;-48
2021/12/10 06:42:37;;;;;;;9.05;3.20;;;;;;;4.22;85.92;99050.63;4878244;29;20049;-50
2021/12/10 06:45:27;;;;;;;9.93;3.35;;;;;;;4.16;86.41;99047.13;4880577;29;20072;-49
2021/12/10 06:48:16;;;;;;;11.13;3.53;;;;;;;4.09;86.54;99041.19;4877866;29;20128;-56
2021/12/10 06:51:10;;;;;;;11.85;3.13;;;;;;;4.05;87.07;99050.88;4878816;29;20053;-54
2021/12/10 06:53:57;;;;;;;10.02;3.42;;;;;;;4.12;86.43;99043.34;4880155;29;20116;-53
2021/12/10 06:56:45;;;;;;;10.40;3.08;;;;;;;4.15;86.56;99050.09;4878567;29;20137;-49
2021/12/10 06:59:33;;;;;;;13.85;3.65;;;;;;;4.20;86.88;99048.19;4529668;29;9999951;-53
2021/12/10 07:02:20;;;;;;;10.88;3.35;;;;;;;4.23;86.64;99047.66;4873808;29;20745;-50
2021/12/10 07:05:08;;;;;;;11.30;3.20;;;;;;;4.24;86.88;99053.84;4875713;29;20128;-50
2021/12/10 07:07:56;;;;;;;11.18;3.47;;;;;;;4.26;86.71;99047.13;4873319;29;20117;-49
2021/12/10 07:10:43;;;;;;;9.13;3.38;;;;;;;4.30;86.98;99049.25;4877161;29;20052;-52
2021/12/10 07:13:33;;;;;;;9.45;3.03;;;;;;;4.32;86.73;99055.19;4877898;29;20057;-53
2021/12/10 07:16:23;;;;;;;10.48;3.67;;;;;;;4.37;86.44;99047.09;4877387;29;20416;-51
2021/12/10 07:19:11;;;;;;;14.43;4.28;;;;;;;4.42;87.08;99049.78;4875266;29;20420;-51
2021/12/10 07:21:58;;;;;;;13.48;3.72;;;;;;;4.44;86.67;99053.03;4868548;29;20069;-50
2021/12/10 07:24:46;;;;;;;10.75;2.95;;;;;;;4.44;86.41;99043.06;4872142;29;20061;-49
2021/12/10 07:27:34;;;;;;;12.30;3.63;;;;;;;4.41;86.07;99042.78;4870987;29;20053;-49
2021/12/10 07:30:24;;;;;;;10.20;3.72;;;;;;;4.41;86.69;99040.91;4873479;29;20061;-49
2021/12/10 07:33:11;;;;;;;9.85;3.25;;;;;;;4.42;86.31;99047.09;4875020;29;20056;-51
2021/12/10 07:35:59;;;;;;;9.07;3.28;;;;;;;4.43;85.68;99044.16;4874509;29;20564;-46
2021/12/10 07:38:48;;;;;;;11.85;3.83;;;;;;;4.48;86.87;99043.31;4872388;29;20056;-53
2021/12/10 07:41:36;;;;;;;11.55;3.60;;;;;;;4.48;85.88;99043.31;4873642;29;20048;-53
2021/12/10 07:44:24;;;;;;;9.32;3.40;;;;;;;4.44;85.91;99039.56;4874634;29;20052;-53
2021/12/10 07:47:13;;;;;;;9.35;3.40;;;;;;;4.44;85.93;99042.25;4875878;29;20143;-51
2021/12/10 07:50:03;;;;;;;10.60;3.20;;;;;;;4.46;85.54;99038.19;4877091;29;20451;-53
2021/12/10 07:52:56;;;;;;;10.85;3.35;;;;;;;4.45;84.96;99041.97;4878747;29;20068;-49
2021/12/10 07:55:44;;;;;;;11.57;3.10;;;;;;;4.37;85.31;99044.41;4874635;29;20049;-50
2021/12/10 07:58:32;;;;;;;10.07;3.42;;;;;;;4.36;85.82;99042.81;4877155;29;20080;-52
2021/12/10 08:01:26;;;;;;;10.02;3.50;;;;;;;4.36;86.11;99051.69;4876419;29;20070;-53
2021/12/10 08:04:14;;;;;;;13.05;3.65;;;;;;;4.34;85.46;99058.44;4875357;29;20056;-51
2021/12/10 08:07:01;;;;;;;8.32;3.30;;;;;;;4.34;86.22;99050.34;4875445;29;20064;-51
2021/12/10 08:09:49;;;;;;;9.90;3.30;;;;;;;4.37;85.69;99050.59;4862708;29;20113;-51
2021/12/10 08:12:37;;;;;;;11.88;3.95;;;;;;;4.39;85.96;99056.53;4877229;29;20061;-52
2021/12/10 08:15:25;;;;;;;13.23;4.07;;;;;;;4.40;85.43;99051.94;4862305;29;20061;-47
2021/12/10 08:18:12;;;;;;;9.80;3.60;;;;;;;4.42;85.70;99060.56;4877706;29;20055;-48
2021/12/10 08:21:00;;;;;;;7.88;3.10;;;;;;;4.45;85.80;99055.47;4877679;29;20065;-51
2021/12/10 08:23:50;;;;;;;9.70;3.67;;;;;;;4.48;85.52;99056.81;4874686;29;20049;-53
2021/12/10 08:26:38;;;;;;;10.50;4.00;;;;;;;4.49;86.28;99055.72;4877161;29;20075;-52
2021/12/10 08:29:26;;;;;;;10.80;3.55;;;;;;;4.50;85.23;99060.06;4877641;29;20049;-50
2021/12/10 08:32:16;;;;;;;13.05;4.22;;;;;;;4.42;84.90;99055.19;4876795;29;20045;-50
2021/12/10 08:35:06;;;;;;;11.93;4.10;;;;;;;4.37;85.28;99063.28;4876022;29;20520;-48
2021/12/10 08:37:54;;;;;;;9.25;3.95;;;;;;;4.39;86.22;99063.81;4875796;29;20098;-45
2021/12/10 08:40:46;;;;;;;9.95;3.70;;;;;;;4.41;84.43;99069.75;4859596;29;20516;-49
2021/12/10 08:43:35;;;;;;;15.10;4.00;;;;;;;4.33;84.85;99063.03;4875835;29;20052;-47
2021/12/10 08:46:24;;;;;;;15.50;4.45;;;;;;;4.30;85.35;99057.34;4876235;29;20053;-50
2021/12/10 08:49:13;;;;;;;12.43;3.85;;;;;;;4.35;85.23;99058.16;4874319;29;20063;-47
2021/12/10 08:52:00;;;;;;;12.15;3.70;;;;;;;4.38;85.29;99054.13;4877135;29;20056;-48
2021/12/10 08:54:48;;;;;;;9.43;3.97;;;;;;;4.48;85.40;99057.63;4879976;29;20144;-49
2021/12/10 08:57:36;;;;;;;13.15;4.40;;;;;;;4.52;84.37;99054.38;4879914;29;20504;-50
2021/12/10 09:00:24;;;;;;;14.32;4.90;;;;;;;4.55;84.39;99062.75;4879910;29;20477;-44
2021/12/10 09:03:12;;;;;;;11.70;3.78;;;;;;;4.58;84.51;99058.69;4879782;29;20453;-51
2021/12/10 09:06:01;;;;;;;17.15;4.72;;;;;;;4.63;84.37;99055.97;4879866;29;20049;-49
2021/12/10 09:08:55;;;;;;;13.02;3.85;;;;;;;4.62;84.06;99071.38;4879904;29;20080;-47
2021/12/10 09:11:47;;;;;;;13.48;4.15;;;;;;;4.66;82.90;99068.91;4876574;29;20068;-50
2021/12/10 09:14:45;;;;;;;25.17;6.25;;;;;;;4.61;83.90;99080.50;4871199;29;20132;-52
2021/12/10 09:17:33;;;;;;;16.15;4.57;;;;;;;4.58;84.17;99075.69;4866160;29;20057;-51
2021/12/10 09:20:26;;;;;;;9.93;3.40;;;;;;;4.56;83.92;99077.84;4877060;29;20049;-52
2021/12/10 09:23:17;;;;;;;14.43;3.85;;;;;;;4.56;84.35;99072.44;4877133;29;20124;-48
2021/12/10 09:26:10;;;;;;;13.23;4.38;;;;;;;4.52;84.76;99082.13;4861024;29;20061;-49
2021/12/10 09:28:59;;;;;;;10.73;4.43;;;;;;;4.51;84.79;99071.63;4870096;29;20850;-51
2021/12/10 09:31:46;;;;;;;11.30;4.05;;;;;;;4.53;85.33;99080.28;4879707;29;20121;-54
2021/12/10 09:34:55;;;;;;;12.30;4.13;;;;;;;4.59;84.82;99079.16;4879199;29;20086;-51
2021/12/10 09:37:58;;;;;;;13.40;3.83;;;;;;;4.63;84.30;99081.06;4876875;29;20060;-50
2021/12/10 09:40:47;;;;;;;12.80;4.07;;;;;;;4.64;84.24;99081.88;4879200;29;20061;-52
2021/12/10 09:43:35;;;;;;;21.52;10.77;;;;;;;4.67;84.48;99086.72;4880223;29;20068;-50
2021/12/10 09:46:23;;;;;;;12.05;3.97;;;;;;;4.64;84.35;99085.38;4876466;29;20127;-49
2021/12/10 09:49:11;;;;;;;15.32;4.82;;;;;;;4.64;84.51;99081.88;4876843;29;20140;-49
2021/12/10 09:52:04;;;;;;;9.80;3.70;;;;;;;4.73;83.95;99090.22;4867160;29;20508;-52
2021/12/10 09:54:52;;;;;;;10.90;3.40;;;;;;;4.68;83.54;99091.03;4878969;29;20116;-49
2021/12/10 09:57:40;;;;;;;10.45;3.92;;;;;;;4.63;83.88;99094.53;4876432;29;20049;-53
2021/12/10 10:00:42;;;;;;;12.70;4.15;;;;;;;4.61;84.32;99088.59;4876077;29;20056;-46
2021/12/10 10:03:33;;;;;;;14.23;4.63;;;;;;;4.61;84.46;99075.13;4874643;29;20064;-48
2021/12/10 10:06:21;;;;;;;12.40;3.60;;;;;;;4.66;85.14;99083.19;4873405;29;20053;-49
2021/12/10 10:09:11;;;;;;;11.15;3.97;;;;;;;4.73;84.77;99077.53;4878608;29;20846;-47
2021/12/10 10:12:11;;;;;;;14.30;4.70;;;;;;;4.82;84.80;99077.81;4877831;29;20496;-47
2021/12/10 10:15:01;;;;;;;15.32;4.60;;;;;;;4.86;83.97;99081.59;4864398;29;20060;-49
2021/12/10 10:18:11;;;;;;;13.90;4.60;;;;;;;4.83;83.88;99087.50;4864407;29;20109;-48
2021/12/10 10:21:06;;;;;;;11.43;3.75;;;;;;;4.77;84.71;99089.41;4877793;29;20064;-48
2021/12/10 10:23:54;;;;;;;11.75;3.78;;;;;;;4.79;84.59;99078.34;4878356;29;20060;-48
2021/12/10 10:26:32;;;;;;;12.80;3.65;;;;;;;4.79;84.86;99087.25;4860031;29;20057;-48
2021/12/10 10:29:21;;;;;;;12.23;3.45;;;;;;;4.84;84.39;99089.94;4864264;29;20483;-51
2021/12/10 10:32:15;;;;;;;14.55;5.07;;;;;;;4.78;85.20;99080.22;4851948;29;20056;-49
2021/12/10 10:35:13;;;;;;;13.15;3.75;;;;;;;4.66;85.44;99087.78;4877589;29;20060;-48
2021/12/10 10:38:04;;;;;;;11.85;3.58;;;;;;;4.63;85.60;99086.44;4862822;29;20117;-48
2021/12/10 10:40:58;;;;;;;12.68;3.80;;;;;;;4.65;85.84;99092.38;4877017;29;20060;-47
2021/12/10 10:43:46;;;;;;;10.43;3.53;;;;;;;4.71;86.14;99082.38;4877414;29;20500;-52
2021/12/10 10:46:34;;;;;;;10.02;4.03;;;;;;;4.83;86.23;99092.91;4874729;29;20385;-51
2021/12/10 10:49:44;;;;;;;9.88;3.55;;;;;;;4.78;84.90;99090.22;4877197;29;20068;-48
2021/12/10 10:52:36;;;;;;;13.18;3.80;;;;;;;4.72;85.50;99088.63;4896578;29;20120;-50
2021/12/10 10:55:30;;;;;;;15.35;3.83;;;;;;;4.75;85.17;99086.16;4882249;29;20045;-45
2021/12/10 10:58:21;;;;;;;11.35;3.50;;;;;;;4.73;84.78;99090.22;4875434;29;20045;-50
2021/12/10 11:01:24;;;;;;;11.73;3.92;;;;;;;4.72;85.01;99085.91;4877484;29;20045;-48
2021/12/10 11:04:39;;;;;;;11.68;3.78;;;;;;;4.72;85.16;99091.31;4866142;29;20065;-49
2021/12/10 11:07:27;;;;;;;10.90;3.63;;;;;;;4.70;83.97;99078.88;4876747;29;20066;-48
2021/12/10 11:10:29;;;;;;;13.65;4.25;;;;;;;4.68;84.67;99074.84;4878869;29;20104;-48
2021/12/10 11:13:24;;;;;;;14.43;3.67;;;;;;;4.72;84.54;99075.94;4876425;29;20052;-49
2021/12/10 11:16:20;;;;;;;14.25;4.03;;;;;;;4.73;83.84;99082.13;4874859;29;20048;-48
2021/12/10 11:19:17;;;;;;;14.43;3.85;;;;;;;4.70;83.80;99084.28;4874874;29;20144;-49
2021/12/10 11:22:13;;;;;;;11.40;3.78;;;;;;;4.77;84.46;99088.59;4877180;29;20171;-48
2021/12/10 11:25:10;;;;;;;28.38;13.63;;;;;;;4.87;83.98;99077.78;4876654;29;20045;-49
2021/12/10 11:28:09;;;;;;;27.58;8.93;;;;;;;4.94;83.23;99083.72;4862165;29;20053;-48
2021/12/10 11:31:03;;;;;;;34.05;16.92;;;;;;;5.00;82.99;99087.19;4876912;29;20049;-50
2021/12/10 11:33:52;;;;;;;11.60;4.93;;;;;;;4.98;82.81;99092.88;4862720;29;20536;-49
2021/12/10 11:36:40;;;;;;;12.13;4.10;;;;;;;4.99;82.85;99099.09;4863156;29;20056;-48
2021/12/10 11:39:51;;;;;;;21.42;8.32;;;;;;;5.01;82.65;99094.22;4873620;29;20056;-49
2021/12/10 11:42:47;;;;;;;12.82;5.07;;;;;;;5.04;82.14;99089.06;4841044;29;20065;-51
2021/12/10 11:45:45;;;;;;;15.15;6.30;;;;;;;5.07;81.16;99088.53;4845010;29;20049;-51
2021/12/10 11:48:36;;;;;;;21.85;7.45;;;;;;;5.06;81.32;99096.91;4858130;29;20117;-50
2021/12/10 11:51:34;;;;;;;13.98;4.05;;;;;;;5.02;80.49;99101.22;4857765;29;20064;-49
2021/12/10 11:54:21;;;;;;;14.23;3.95;;;;;;;4.96;81.43;99108.53;4854661;29;20061;-54
2021/12/10 11:57:17;;;;;;;12.57;4.40;;;;;;;4.96;81.43;99116.63;4840598;29;20058;-49
2021/12/10 12:00:19;;;;;;;13.50;3.95;;;;;;;4.99;81.04;99107.97;4845586;29;20135;-50
2021/12/10 12:03:08;;;;;;;11.15;3.50;;;;;;;5.01;81.06;99116.63;4176113;29;10000685;-48
2021/12/10 12:05:56;;;;;;;9.95;3.45;;;;;;;5.01;80.18;99115.81;4838220;29;20058;-53
2021/12/10 12:08:44;;;;;;;12.27;4.07;;;;;;;5.00;80.49;99109.59;4844724;29;20089;-51
2021/12/10 12:11:32;;;;;;;12.65;3.72;;;;;;;5.03;80.47;99105.56;4856856;29;20060;-46
2021/12/10 12:14:26;;;;;;;12.52;3.92;;;;;;;5.03;80.16;99113.66;4856243;29;20050;-51
2021/12/10 12:17:40;;;;;;;11.70;4.03;;;;;;;5.02;80.54;99115.53;4856614;29;20049;-50
2021/12/10 12:20:42;;;;;;;11.02;4.70;;;;;;;5.01;80.24;99119.31;4855745;29;20072;-52
2021/12/10 12:26:43;;;;;;;10.63;4.07;;;;;;;5.05;80.34;99133.91;4855269;29;20061;-49
2021/12/10 12:29:56;;;;;;;13.27;3.90;;;;;;;5.00;80.03;99141.97;4860048;29;20537;-49
2021/12/10 12:32:48;;;;;;;10.80;3.57;;;;;;;5.01;80.32;99149.00;4860809;29;20056;-54
2021/12/10 12:35:37;;;;;;;10.23;3.83;;;;;;;5.05;80.12;99142.00;4859171;29;20061;-49
2021/12/10 12:38:29;;;;;;;14.70;5.50;;;;;;;5.09;79.97;99140.34;4859213;29;20045;-51
2021/12/10 12:41:42;;;;;;;12.00;4.00;;;;;;;5.07;79.75;99147.91;4846090;29;20144;-46
2021/12/10 12:44:34;;;;;;;15.00;4.70;;;;;;;5.07;79.29;99147.91;4860217;29;20084;-49
2021/12/10 12:47:48;;;;;;;11.13;4.43;;;;;;;5.04;79.86;99150.34;4863661;29;20073;-45
2021/12/10 12:51:01;;;;;;;12.32;4.32;;;;;;;5.05;80.17;99151.97;4875181;29;20056;-48
2021/12/10 12:53:50;;;;;;;10.52;4.00;;;;;;;5.08;80.06;99151.44;4877728;29;20057;-51
2021/12/10 12:56:21;;;;;;;9.63;4.18;;;;;;;5.11;80.07;99159.78;4847759;29;20057;-47
2021/12/10 12:59:29;;;;;;;13.38;4.53;;;;;;;5.13;79.77;99163.03;4877698;29;20049;-47
2021/12/10 13:02:22;;;;;;;14.98;4.32;;;;;;;5.16;79.84;99171.66;4865308;29;20063;-52
2021/12/10 13:05:11;;;;;;;17.55;8.50;;;;;;;5.18;79.82;99174.91;4864167;29;20063;-47
2021/12/10 13:08:12;;;;;;;10.40;4.20;;;;;;;5.19;79.76;99182.72;4877657;29;20057;-48
2021/12/10 13:11:33;;;;;;;15.70;4.57;;;;;;;5.21;79.10;99174.34;4868560;29;20092;-49
2021/12/10 13:14:26;;;;;;;11.95;4.38;;;;;;;5.13;78.91;99179.22;4878230;29;20128;-52
2021/12/10 13:17:33;;;;;;;12.52;3.92;;;;;;;5.09;79.51;99188.94;4880285;29;20445;-49
2021/12/10 13:20:24;;;;;;;11.48;4.18;;;;;;;5.08;79.28;99187.31;4879072;29;20551;-48
2021/12/10 13:23:16;;;;;;;12.63;3.88;;;;;;;5.08;79.30;99192.72;4879901;29;20131;-50
2021/12/10 13:26:10;;;;;;;16.23;4.40;;;;;;;5.11;78.86;99202.97;4878029;29;20159;-49
2021/12/10 13:28:58;;;;;;;14.02;4.43;;;;;;;5.09;79.04;99197.03;4866644;29;20768;-49
2021/12/10 13:31:46;;;;;;;11.90;4.10;;;;;;;5.16;79.79;99204.06;4880282;29;20060;-49
2021/12/10 13:34:34;;;;;;;13.43;4.55;;;;;;;5.16;78.97;99209.47;4881429;29;20053;-50
2021/12/10 13:37:21;;;;;;;16.00;4.20;;;;;;;5.14;79.35;99201.63;4879989;29;20140;-50
2021/12/10 13:40:10;;;;;;;11.40;4.13;;;;;;;5.12;79.03;99215.41;4866422;29;20057;-50